createdAt,value
2023-01-25T00:00:23.183Z,103236.22
2023-01-25T00:02:55.988Z,103228.44
2023-01-25T00:05:26.127Z,103226.63
2023-01-25T00:07:56.132Z,103218.81
2023-01-25T00:10:26.897Z,103215.16
2023-01-25T00:12:58.349Z,103208.19
2023-01-25T00:15:28.364Z,103202.16
2023-01-25T00:18:08.745Z,103198.66
2023-01-25T00:20:41.620Z,103190.31
2023-01-25T00:23:11.541Z,103183.34
2023-01-25T00:25:41.580Z,103172.59
2023-01-25T00:28:11.527Z,103164.63
2023-01-25T00:30:42.475Z,103161.94
2023-01-25T00:33:43.125Z,103152.34
2023-01-25T00:36:31.555Z,103141.00
2023-01-25T00:39:01.572Z,103131.78
2023-01-25T00:41:31.647Z,103136.97
2023-01-25T00:44:02.137Z,103141.38
2023-01-25T00:46:32.362Z,103136.13
2023-01-25T00:49:05.103Z,103133.47
2023-01-25T00:51:35.953Z,103130.06
2023-01-25T00:54:06.067Z,103125.75
2023-01-25T00:56:36.141Z,103128.13
2023-01-25T00:59:06.179Z,103131.31
2023-01-25T01:01:38.979Z,103135.38
2023-01-25T01:04:11.973Z,103142.09
2023-01-25T01:06:45.001Z,103138.72
2023-01-25T01:09:17.909Z,103149.28
2023-01-25T01:11:48.810Z,103147.47
2023-01-25T01:14:21.717Z,103141.34
2023-01-25T01:16:52.033Z,103149.22
2023-01-25T01:19:24.698Z,103140.38
2023-01-25T01:21:54.725Z,103135.94
2023-01-25T01:24:25.679Z,103135.03
2023-01-25T01:26:55.906Z,103132.50
2023-01-25T01:29:26.070Z,103122.19
2023-01-25T01:31:56.643Z,103136.22
2023-01-25T01:34:31.514Z,103132.13
2023-01-25T01:37:01.877Z,103131.03
2023-01-25T01:39:31.840Z,103127.31
2023-01-25T01:42:02.199Z,103128.06
2023-01-25T01:44:50.769Z,103124.34
2023-01-25T01:47:28.734Z,103124.63
2023-01-25T01:50:19.843Z,103121.34
2023-01-25T01:52:50.514Z,103113.53
2023-01-25T01:55:25.209Z,103119.41
2023-01-25T01:58:00.903Z,103106.31
2023-01-25T02:00:35.146Z,103109.00
2023-01-25T02:03:05.205Z,103105.69
2023-01-25T02:05:43.868Z,103108.50
2023-01-25T02:08:17.668Z,103119.09
2023-01-25T02:10:48.981Z,103110.16
2023-01-25T02:13:20.059Z,103111.69
2023-01-25T02:15:53.267Z,103107.19
2023-01-25T02:18:26.012Z,103108.03
2023-01-25T02:21:01.428Z,103103.66
2023-01-25T02:23:43.443Z,103107.31
2023-01-25T02:26:17.563Z,103094.97
2023-01-25T02:28:51.793Z,103098.34
2023-01-25T02:31:21.961Z,103098.28
2023-01-25T02:33:52.292Z,103102.78
2023-01-25T02:36:27.439Z,103104.72
2023-01-25T02:39:02.374Z,103099.59
2023-01-25T02:41:40.990Z,103096.81
2023-01-25T02:44:14.693Z,103089.84
2023-01-25T02:46:47.937Z,103093.25
2023-01-25T02:49:19.130Z,103085.22
2023-01-25T02:51:55.941Z,103091.31
2023-01-25T02:54:27.952Z,103091.94
2023-01-25T02:57:01.987Z,103089.13
2023-01-25T02:59:39.633Z,103093.63
2023-01-25T03:02:09.702Z,103081.84
2023-01-25T03:04:39.880Z,103088.31
2023-01-25T03:07:11.118Z,103079.69
2023-01-25T03:09:44.542Z,103077.88
2023-01-25T03:12:20.198Z,103074.28
2023-01-25T03:14:50.280Z,103077.75
2023-01-25T03:17:21.936Z,103076.66
2023-01-25T03:19:54.100Z,103068.50
2023-01-25T03:22:24.604Z,103071.06
2023-01-25T03:24:55.319Z,103068.38
2023-01-25T03:27:28.272Z,103063.13
2023-01-25T03:30:08.069Z,103063.94
2023-01-25T03:32:39.112Z,103063.31
2023-01-25T03:35:13.309Z,103061.47
2023-01-25T03:37:43.666Z,103057.88
2023-01-25T03:40:15.228Z,103042.13
2023-01-25T03:42:53.710Z,103061.31
2023-01-25T03:45:23.875Z,103063.00
2023-01-25T03:47:54.415Z,103056.28
2023-01-25T03:50:24.389Z,103050.38
2023-01-25T03:52:59.926Z,103033.59
2023-01-25T03:55:32.427Z,103043.84
2023-01-25T03:58:05.652Z,103032.44
2023-01-25T04:00:36.825Z,103028.81
2023-01-25T04:03:06.868Z,103028.56
2023-01-25T04:05:36.891Z,103024.09
2023-01-25T04:08:06.868Z,103028.38
2023-01-25T04:10:41.781Z,103019.53
2023-01-25T04:13:14.970Z,103011.78
2023-01-25T04:15:45.461Z,103007.81
2023-01-25T04:18:25.606Z,103003.41
2023-01-25T04:20:56.711Z,102997.47
2023-01-25T04:23:28.546Z,102993.06
2023-01-25T04:25:59.989Z,102986.81
2023-01-25T04:28:32.850Z,102984.19
2023-01-25T04:31:03.731Z,102984.25
2023-01-25T04:33:38.589Z,102976.59
2023-01-25T04:36:11.387Z,102978.41
2023-01-25T04:38:42.296Z,102977.69
2023-01-25T04:41:13.090Z,102970.78
2023-01-25T04:43:47.157Z,102967.44
2023-01-25T04:46:20.568Z,102964.06
2023-01-25T04:48:53.015Z,102965.00
2023-01-25T04:51:24.122Z,102974.75
2023-01-25T04:53:54.531Z,102970.59
2023-01-25T04:56:24.628Z,102959.69
2023-01-25T04:59:00.086Z,102958.97
2023-01-25T05:01:33.421Z,102953.09
2023-01-25T05:04:04.459Z,102966.44
2023-01-25T05:06:40.539Z,102961.66
2023-01-25T05:09:12.131Z,102949.53
2023-01-25T05:11:43.180Z,102946.84
2023-01-25T05:14:22.603Z,102946.56
2023-01-25T05:16:53.595Z,102948.88
2023-01-25T05:19:23.852Z,102943.47
2023-01-25T05:22:01.349Z,102950.41
2023-01-25T05:24:41.720Z,102944.50
2023-01-25T05:27:12.995Z,102940.91
2023-01-25T05:30:01.009Z,102942.66
2023-01-25T05:32:46.118Z,102946.03
2023-01-25T05:35:18.888Z,102939.06
2023-01-25T05:37:50.015Z,102945.91
2023-01-25T05:40:26.944Z,102949.63
2023-01-25T05:46:30.209Z,102954.69
2023-01-25T05:49:00.882Z,102944.75
2023-01-25T05:51:38.284Z,102948.56
2023-01-25T05:54:09.867Z,102942.03
2023-01-25T05:56:40.805Z,102948.16
2023-01-25T05:59:13.980Z,102944.72
2023-01-25T06:01:47.611Z,102938.03
2023-01-25T06:04:19.150Z,102927.72
2023-01-25T06:06:49.566Z,102930.22
2023-01-25T06:09:19.615Z,102929.34
2023-01-25T06:11:50.294Z,102927.25
2023-01-25T06:14:20.660Z,102923.47
2023-01-25T06:16:53.265Z,102913.16
2023-01-25T06:19:45.802Z,102914.34
2023-01-25T06:22:28.795Z,102918.56
2023-01-25T06:24:58.854Z,102914.91
2023-01-25T06:27:31.609Z,102915.59
2023-01-25T06:30:01.653Z,102906.19
2023-01-25T06:32:39.809Z,102908.31
2023-01-25T06:35:13.656Z,102907.09
2023-01-25T06:37:45.475Z,102911.03
2023-01-25T06:40:26.211Z,102911.81
2023-01-25T06:43:12.579Z,102921.19
2023-01-25T06:45:44.897Z,102922.41
2023-01-25T06:48:19.589Z,102911.63
2023-01-25T06:51:00.146Z,102905.47
2023-01-25T06:53:39.232Z,102901.13
2023-01-25T06:56:12.649Z,102902.84
2023-01-25T06:58:43.625Z,102902.22
2023-01-25T07:01:19.897Z,102890.53
2023-01-25T07:03:57.893Z,102887.91
2023-01-25T07:06:45.877Z,102885.16
2023-01-25T07:09:19.259Z,102886.19
2023-01-25T07:11:51.090Z,102887.22
2023-01-25T07:14:23.525Z,102889.31
2023-01-25T07:16:55.774Z,102889.25
2023-01-25T07:19:28.664Z,102878.78
2023-01-25T07:21:59.107Z,102876.38
2023-01-25T07:24:32.666Z,102877.41
2023-01-25T07:27:02.745Z,102872.19
2023-01-25T07:29:33.998Z,102868.94
2023-01-25T07:32:03.948Z,102869.09
2023-01-25T07:34:37.661Z,102865.81
2023-01-25T07:37:09.298Z,102861.91
2023-01-25T07:39:40.837Z,102856.41
2023-01-25T07:42:10.891Z,102855.22
2023-01-25T07:44:41.494Z,102861.94
2023-01-25T07:47:15.550Z,102854.00
2023-01-25T07:49:48.164Z,102851.06
2023-01-25T07:52:18.275Z,102851.22
2023-01-25T07:54:50.032Z,102852.88
2023-01-25T07:57:20.633Z,102844.09
2023-01-25T07:59:50.696Z,102843.25
2023-01-25T08:02:22.066Z,102840.41
2023-01-25T08:04:59.134Z,102840.16
2023-01-25T08:07:31.183Z,102836.81
2023-01-25T08:10:01.268Z,102836.75
2023-01-25T08:12:31.519Z,102822.50
2023-01-25T08:15:01.572Z,102823.66
2023-01-25T08:17:32.780Z,102822.97
2023-01-25T08:20:06.360Z,102823.53
2023-01-25T08:22:36.497Z,102820.66
2023-01-25T08:25:22.302Z,102824.09
2023-01-25T08:28:12.571Z,102816.97
2023-01-25T08:30:56.197Z,102812.88
2023-01-25T08:33:27.247Z,102816.34
2023-01-25T08:36:02.561Z,102815.31
2023-01-25T08:38:32.660Z,102815.19
2023-01-25T08:41:08.103Z,102816.63
2023-01-25T08:43:38.331Z,102806.22
2023-01-25T08:46:09.578Z,102813.88
2023-01-25T08:48:40.287Z,102814.16
2023-01-25T08:51:15.838Z,102807.31
2023-01-25T08:53:46.095Z,102810.75
2023-01-25T08:56:17.729Z,102812.84
2023-01-25T08:58:50.072Z,102813.66
2023-01-25T09:01:22.491Z,102805.81
2023-01-25T09:03:54.259Z,102804.53
2023-01-25T09:06:27.010Z,102803.56
2023-01-25T09:09:01.183Z,102807.19
2023-01-25T09:11:31.424Z,102803.66
2023-01-25T09:14:01.584Z,102804.47
2023-01-25T09:16:31.734Z,102807.16
2023-01-25T09:19:04.359Z,102807.00
2023-01-25T09:21:45.908Z,102803.41
2023-01-25T09:24:17.640Z,102822.53
2023-01-25T09:27:00.107Z,102811.44
2023-01-25T09:29:43.767Z,102797.72
2023-01-25T09:32:22.466Z,102811.00
2023-01-25T09:34:59.232Z,102807.25
2023-01-25T09:37:51.017Z,102798.97
2023-01-25T09:40:25.534Z,102798.91
2023-01-25T09:43:03.354Z,102794.09
2023-01-25T09:45:43.703Z,102795.84
2023-01-25T09:48:28.941Z,102789.66
2023-01-25T09:51:22.786Z,102781.56
2023-01-25T09:54:05.573Z,102781.34
2023-01-25T09:56:40.749Z,102781.38
2023-01-25T09:59:30.496Z,102773.91
2023-01-25T10:02:04.586Z,102774.75
2023-01-25T10:04:43.061Z,102770.03
2023-01-25T10:07:23.620Z,102766.25
2023-01-25T10:10:06.762Z,102767.88
2023-01-25T10:12:42.713Z,102767.53
2023-01-25T10:15:24.885Z,102757.66
2023-01-25T10:18:02.705Z,102752.63
2023-01-25T10:20:43.552Z,102747.56
2023-01-25T10:23:52.185Z,102745.91
2023-01-25T10:26:30.253Z,102738.91
2023-01-25T10:29:07.983Z,102735.09
2023-01-25T10:31:56.636Z,102732.84
2023-01-25T10:34:57.294Z,102730.91
2023-01-25T10:37:35.405Z,102726.38
2023-01-25T10:40:16.875Z,102725.66
2023-01-25T10:43:01.600Z,102717.72
2023-01-25T10:45:33.532Z,102722.66
2023-01-25T10:48:06.356Z,102711.00
2023-01-25T10:50:54.228Z,102720.09
2023-01-25T10:53:36.183Z,102709.28
2023-01-25T10:56:29.798Z,102704.63
2023-01-25T10:59:20.142Z,102695.25
2023-01-25T11:01:57.483Z,102696.63
2023-01-25T11:04:33.788Z,102689.09
2023-01-25T11:07:06.111Z,102684.72
2023-01-25T11:09:41.933Z,102686.53
2023-01-25T11:12:21.176Z,102689.22
2023-01-25T11:14:54.064Z,102673.56
2023-01-25T11:17:32.120Z,102670.81
2023-01-25T11:20:27.482Z,102661.84
2023-01-25T11:23:03.511Z,102659.19
2023-01-25T11:25:35.311Z,102649.84
2023-01-25T11:28:34.542Z,102645.00
2023-01-25T11:31:27.678Z,102645.97
2023-01-25T11:34:02.366Z,102635.63
2023-01-25T11:36:40.598Z,102632.19
2023-01-25T11:39:28.207Z,102620.63
2023-01-25T11:42:13.421Z,102620.50
2023-01-25T11:45:08.976Z,102614.19
2023-01-25T11:47:57.503Z,102604.59
2023-01-25T11:50:35.351Z,102593.19
2023-01-25T11:53:23.800Z,102587.34
2023-01-25T11:56:00.887Z,102585.09
2023-01-25T11:58:49.827Z,102575.06
2023-01-25T12:01:37.020Z,102559.31
2023-01-25T12:04:47.974Z,102559.25
2023-01-25T12:07:29.894Z,102554.00
2023-01-25T12:10:17.970Z,102544.91
2023-01-25T12:12:57.198Z,102545.44
2023-01-25T12:16:08.950Z,102536.44
2023-01-25T12:19:03.637Z,102533.44
2023-01-25T12:21:48.061Z,102536.13
2023-01-25T12:24:37.685Z,102526.97
2023-01-25T12:27:25.825Z,102515.13
2023-01-25T12:29:59.397Z,102517.03
2023-01-25T12:32:36.511Z,102508.41
2023-01-25T12:35:25.509Z,102505.66
2023-01-25T12:38:01.976Z,102514.88
2023-01-25T12:40:44.206Z,102514.16
2023-01-25T12:43:19.851Z,102508.03
2023-01-25T12:45:53.136Z,102500.97
2023-01-25T12:48:27.523Z,102496.16
2023-01-25T12:50:59.312Z,102490.63
2023-01-25T12:53:34.403Z,102483.47
2023-01-25T12:56:09.404Z,102481.44
2023-01-25T12:58:48.678Z,102477.19
2023-01-25T13:01:25.077Z,102481.16
2023-01-25T13:04:08.256Z,102468.28
2023-01-25T13:06:48.508Z,102459.06
2023-01-25T13:09:25.667Z,102472.03
2023-01-25T13:11:58.227Z,102474.56
2023-01-25T13:14:33.683Z,102471.97
2023-01-25T13:17:33.743Z,102466.78
2023-01-25T13:20:06.638Z,102462.97
2023-01-25T13:22:59.302Z,102455.31
2023-01-25T13:25:30.360Z,102457.22
2023-01-25T13:28:30.015Z,102444.56
2023-01-25T13:31:02.884Z,102447.72
2023-01-25T13:33:37.881Z,102439.84
2023-01-25T13:36:37.775Z,102429.44
2023-01-25T13:39:37.487Z,102429.25
2023-01-25T13:42:20.146Z,102430.22
2023-01-25T13:44:52.872Z,102433.00
2023-01-25T13:47:28.226Z,102423.88
2023-01-25T13:50:04.788Z,102407.31
2023-01-25T13:52:36.874Z,102409.53
2023-01-25T13:55:23.334Z,102403.72
2023-01-25T13:57:54.627Z,102404.00
2023-01-25T14:00:25.865Z,102399.84
2023-01-25T14:03:02.116Z,102390.91
2023-01-25T14:05:32.088Z,102401.03
2023-01-25T14:08:11.499Z,102397.84
2023-01-25T14:10:41.579Z,102396.25
2023-01-25T14:13:17.981Z,102387.59
2023-01-25T14:15:59.763Z,102387.53
2023-01-25T14:18:38.845Z,102387.66
2023-01-25T14:21:31.459Z,102385.50
2023-01-25T14:24:14.243Z,102382.44
2023-01-25T14:26:53.961Z,102374.34
2023-01-25T14:29:32.501Z,102365.56
2023-01-25T14:32:03.843Z,102370.03
2023-01-25T14:34:43.875Z,102375.19
2023-01-25T14:37:27.327Z,102372.56
2023-01-25T14:40:25.847Z,102366.44
2023-01-25T14:42:59.965Z,102354.91
2023-01-25T14:45:35.836Z,102356.59
2023-01-25T14:48:52.793Z,102354.22
2023-01-25T14:51:35.065Z,102346.44
2023-01-25T14:54:08.184Z,102347.31
2023-01-25T14:56:48.494Z,102338.19
2023-01-25T14:59:40.648Z,102335.66
2023-01-25T15:02:24.375Z,102330.94
2023-01-25T15:05:11.080Z,102332.72
2023-01-25T15:07:51.882Z,102325.78
2023-01-25T15:10:32.096Z,102321.59
2023-01-25T15:13:13.999Z,102318.19
2023-01-25T15:16:07.556Z,102320.56
2023-01-25T15:18:51.114Z,102319.16
2023-01-25T15:21:28.879Z,102306.22
2023-01-25T15:24:06.914Z,102310.34
2023-01-25T15:26:38.902Z,102306.69
2023-01-25T15:29:16.504Z,102294.38
2023-01-25T15:31:46.706Z,102298.84
2023-01-25T15:34:19.321Z,102296.94
2023-01-25T15:36:50.553Z,102294.03
2023-01-25T15:39:23.953Z,102297.69
2023-01-25T15:41:53.951Z,102292.06
2023-01-25T15:44:23.960Z,102286.75
2023-01-25T15:46:54.989Z,102292.34
2023-01-25T15:49:28.221Z,102283.75
2023-01-25T15:51:59.405Z,102289.13
2023-01-25T15:54:32.127Z,102282.81
2023-01-25T15:57:03.471Z,102280.34
2023-01-25T15:59:39.447Z,102275.72
2023-01-25T16:02:15.371Z,102272.59
2023-01-25T16:04:45.464Z,102264.69
2023-01-25T16:07:24.198Z,102264.50
2023-01-25T16:09:57.046Z,102261.03
2023-01-25T16:12:27.047Z,102259.88
2023-01-25T16:14:57.657Z,102256.06
2023-01-25T16:17:30.556Z,102241.91
2023-01-25T16:20:00.981Z,102241.84
2023-01-25T16:22:31.213Z,102238.41
2023-01-25T16:25:04.618Z,102235.50
2023-01-25T16:27:37.558Z,102239.75
2023-01-25T16:30:10.234Z,102232.56
2023-01-25T16:32:45.024Z,102231.22
2023-01-25T16:35:16.332Z,102227.06
2023-01-25T16:37:48.076Z,102224.19
2023-01-25T16:40:30.238Z,102224.13
2023-01-25T16:43:00.441Z,102212.56
2023-01-25T16:45:30.606Z,102213.13
2023-01-25T16:48:01.962Z,102218.00
2023-01-25T16:50:32.166Z,102209.44
2023-01-25T16:53:02.216Z,102204.22
2023-01-25T16:55:34.916Z,102200.91
2023-01-25T16:58:05.422Z,102208.84
2023-01-25T17:00:35.428Z,102198.84
2023-01-25T17:03:06.639Z,102202.59
2023-01-25T17:05:41.344Z,102196.31
2023-01-25T17:08:11.257Z,102183.50
2023-01-25T17:10:43.843Z,102188.72
2023-01-25T17:13:14.761Z,102183.63
2023-01-25T17:15:44.983Z,102175.91
2023-01-25T17:18:14.965Z,102175.44
2023-01-25T17:20:45.712Z,102180.19
2023-01-25T17:23:15.725Z,102185.72
2023-01-25T17:25:48.435Z,102179.81
2023-01-25T17:28:18.381Z,102173.03
2023-01-25T17:30:48.539Z,102172.03
2023-01-25T17:33:18.676Z,102166.38
2023-01-25T17:35:48.894Z,102166.66
2023-01-25T17:38:20.260Z,102166.88
2023-01-25T17:40:53.183Z,102165.53
2023-01-25T17:43:23.455Z,102147.53
2023-01-25T17:45:53.529Z,102149.31
2023-01-25T17:48:23.572Z,102157.44
2023-01-25T17:51:04.293Z,102154.16
2023-01-25T17:53:34.586Z,102149.94
2023-01-25T17:56:08.676Z,102146.69
2023-01-25T17:58:43.571Z,102136.38
2023-01-25T18:01:15.636Z,102133.00
2023-01-25T18:03:46.712Z,102133.34
2023-01-25T18:06:19.219Z,102134.91
2023-01-25T18:08:50.783Z,102139.06
2023-01-25T18:11:25.445Z,102140.06
2023-01-25T18:13:57.925Z,102134.69
2023-01-25T18:16:29.664Z,102134.25
2023-01-25T18:19:01.362Z,102126.00
2023-01-25T18:21:33.640Z,102124.91
2023-01-25T18:24:06.221Z,102116.56
2023-01-25T18:26:40.910Z,102120.31
2023-01-25T18:29:37.753Z,102111.63
2023-01-25T18:32:08.345Z,102112.88
2023-01-25T18:34:38.356Z,102109.03
2023-01-25T18:37:18.858Z,102119.28
2023-01-25T18:39:49.802Z,102119.66
2023-01-25T18:42:23.363Z,102120.41
2023-01-25T18:44:53.545Z,102113.81
2023-01-25T18:47:25.274Z,102110.59
2023-01-25T18:49:56.075Z,102112.94
2023-01-25T18:52:27.268Z,102102.78
2023-01-25T18:54:57.553Z,102098.47
2023-01-25T18:57:31.164Z,102091.81
2023-01-25T19:00:01.429Z,102087.50
2023-01-25T19:02:31.442Z,102088.72
2023-01-25T19:05:01.925Z,102078.88
2023-01-25T19:07:32.205Z,102083.75
2023-01-25T19:10:02.169Z,102075.78
2023-01-25T19:12:34.745Z,102064.59
2023-01-25T19:15:04.875Z,102069.34
2023-01-25T19:17:35.135Z,102060.78
2023-01-25T19:20:05.428Z,102060.16
2023-01-25T19:22:35.449Z,102055.88
2023-01-25T19:25:05.536Z,102054.00
2023-01-25T19:27:38.215Z,102051.25
2023-01-25T19:30:09.512Z,102056.41
2023-01-25T19:32:39.434Z,102050.19
2023-01-25T19:35:10.294Z,102043.53
2023-01-25T19:37:40.368Z,102042.97
2023-01-25T19:40:11.952Z,102034.13
2023-01-25T19:42:44.592Z,102030.94
2023-01-25T19:45:14.876Z,102019.84
2023-01-25T19:47:44.903Z,102023.72
2023-01-25T19:50:15.272Z,102014.91
2023-01-25T19:52:45.391Z,102009.38
2023-01-25T19:55:16.116Z,102007.84
2023-01-25T19:57:49.094Z,102007.28
2023-01-25T20:00:19.747Z,102004.97
2023-01-25T20:02:49.773Z,101999.66
2023-01-25T20:05:25.371Z,101999.38
2023-01-25T20:07:55.353Z,101991.94
2023-01-25T20:10:25.277Z,101994.75
2023-01-25T20:12:57.924Z,101986.91
2023-01-25T20:15:27.811Z,101989.88
2023-01-25T20:17:57.812Z,101983.91
2023-01-25T20:20:27.907Z,101970.94
2023-01-25T20:22:57.842Z,101978.78
2023-01-25T20:25:27.873Z,101974.16
2023-01-25T20:28:00.446Z,101971.84
2023-01-25T20:30:30.856Z,101989.09
2023-01-25T20:33:00.868Z,101987.00
2023-01-25T20:35:30.943Z,101981.97
2023-01-25T20:38:02.134Z,101981.97
2023-01-25T20:40:32.159Z,101979.88
2023-01-25T20:43:05.253Z,101980.88
2023-01-25T20:45:38.391Z,101975.75
2023-01-25T20:48:09.061Z,101973.28
2023-01-25T20:50:39.097Z,101962.34
2023-01-25T20:53:09.101Z,101962.56
2023-01-25T20:55:41.304Z,101964.91
2023-01-25T20:58:14.633Z,101962.06
2023-01-25T21:00:44.692Z,101961.91
2023-01-25T21:03:14.630Z,101952.72
2023-01-25T21:05:52.451Z,101953.47
2023-01-25T21:08:26.014Z,101956.09
2023-01-25T21:10:58.937Z,101949.69
2023-01-25T21:13:34.743Z,101950.72
2023-01-25T21:16:06.763Z,101951.47
2023-01-25T21:18:39.075Z,101949.31
2023-01-25T21:21:10.728Z,101941.13
2023-01-25T21:23:53.346Z,101944.97
2023-01-25T21:26:26.032Z,101935.75
2023-01-25T21:28:59.514Z,101936.78
2023-01-25T21:31:32.918Z,101935.38
2023-01-25T21:34:04.144Z,101937.22
2023-01-25T21:36:34.225Z,101929.44
2023-01-25T21:39:04.548Z,101922.75
2023-01-25T21:41:38.372Z,101913.13
2023-01-25T21:44:23.461Z,101918.13
2023-01-25T21:47:23.559Z,101923.88
2023-01-25T21:49:56.540Z,101920.09
2023-01-25T21:52:26.574Z,101917.31
2023-01-25T21:54:56.489Z,101922.69
2023-01-25T21:57:26.394Z,101922.63
2023-01-25T21:59:58.990Z,101934.59
2023-01-25T22:02:29.018Z,101927.78
2023-01-25T22:04:59.169Z,101927.94
2023-01-25T22:07:29.252Z,101920.16
2023-01-25T22:09:59.245Z,101921.00
2023-01-25T22:12:32.662Z,101913.34
2023-01-25T22:15:05.267Z,101925.44
2023-01-25T22:17:35.320Z,101912.81
2023-01-25T22:20:05.703Z,101911.13
2023-01-25T22:22:35.711Z,101914.34
2023-01-25T22:25:05.666Z,101909.72
2023-01-25T22:27:44.060Z,101909.19
2023-01-25T22:30:17.122Z,101896.50
2023-01-25T22:32:47.220Z,101901.50
2023-01-25T22:35:17.267Z,101888.63
2023-01-25T22:37:47.240Z,101899.66
2023-01-25T22:40:17.475Z,101889.97
2023-01-25T22:42:47.739Z,101888.97
2023-01-25T22:45:20.458Z,101883.34
2023-01-25T22:47:50.578Z,101884.72
2023-01-25T22:50:23.418Z,101877.63
2023-01-25T22:52:53.501Z,101884.03
2023-01-25T22:55:23.466Z,101877.72
2023-01-25T22:57:53.464Z,101890.19
2023-01-25T23:00:26.228Z,101877.09
2023-01-25T23:02:56.220Z,101879.06
2023-01-25T23:05:27.587Z,101882.91
2023-01-25T23:07:57.724Z,101871.38
2023-01-25T23:10:27.874Z,101858.25
2023-01-25T23:12:58.192Z,101861.72
2023-01-25T23:15:30.864Z,101860.41
2023-01-25T23:18:13.213Z,101861.78
2023-01-25T23:20:43.592Z,101853.75
2023-01-25T23:23:14.107Z,101858.91
2023-01-25T23:25:44.195Z,101847.44
2023-01-25T23:28:14.214Z,101845.47
2023-01-25T23:30:46.984Z,101840.91
2023-01-25T23:33:17.151Z,101840.50
2023-01-25T23:35:49.543Z,101833.34
2023-01-25T23:38:19.664Z,101829.38
2023-01-25T23:40:49.672Z,101829.88
2023-01-25T23:43:19.680Z,101831.91
2023-01-25T23:45:52.164Z,101826.84
2023-01-25T23:48:22.088Z,101821.53
2023-01-25T23:50:54.321Z,101820.69
2023-01-25T23:53:24.376Z,101811.88
2023-01-25T23:55:55.594Z,101811.03
2023-01-25T23:58:26.842Z,101808.44
